createdAt,value
2023-01-30T00:02:20.352Z,100104.02
2023-01-30T00:07:23.557Z,100101.48
2023-01-30T00:12:26.752Z,100095.86
2023-01-30T00:17:30.159Z,100085.21
2023-01-30T00:22:33.297Z,100075.08
2023-01-30T00:27:36.435Z,100059.42
2023-01-30T00:32:39.543Z,100046.70
2023-01-30T00:37:42.761Z,100034.48
2023-01-30T00:43:04.958Z,100026.95
2023-01-30T00:48:08.233Z,100006.67
2023-01-30T00:53:16.323Z,99998.42
2023-01-30T00:58:20.387Z,99990.85
2023-01-30T01:03:23.855Z,99969.56
2023-01-30T01:08:27.057Z,99960.80
2023-01-30T01:13:30.234Z,99945.52
2023-01-30T01:18:33.835Z,99928.00
2023-01-30T01:23:37.135Z,99916.49
2023-01-30T01:28:40.270Z,99893.83
2023-01-30T01:33:46.987Z,99882.65
2023-01-30T01:38:50.331Z,99874.41
2023-01-30T01:44:12.317Z,99867.89
2023-01-30T01:49:25.149Z,99851.23
2023-01-30T01:54:36.925Z,99838.17
2023-01-30T01:59:52.303Z,99831.30
2023-01-30T02:05:02.398Z,99835.60
2023-01-30T02:10:11.384Z,99834.91
2023-01-30T02:15:15.666Z,99817.41
2023-01-30T02:20:47.929Z,99805.72
2023-01-30T02:26:14.201Z,99800.73
2023-01-30T02:31:43.729Z,99785.45
2023-01-30T02:37:06.085Z,99779.80
2023-01-30T02:42:31.296Z,99770.35
2023-01-30T02:47:40.267Z,99761.77
2023-01-30T02:52:45.434Z,99749.92
2023-01-30T02:57:48.582Z,99734.81
2023-01-30T03:03:10.790Z,99733.43
2023-01-30T03:08:23.528Z,99720.38
2023-01-30T03:13:32.972Z,99715.92
2023-01-30T03:18:37.400Z,99703.89
2023-01-30T03:23:40.858Z,99692.56
2023-01-30T03:28:46.666Z,99673.17
2023-01-30T03:33:49.932Z,99642.63
2023-01-30T03:38:53.688Z,99635.58
2023-01-30T03:43:58.247Z,99625.46
2023-01-30T03:49:01.512Z,99610.54
2023-01-30T03:54:04.899Z,99609.52
2023-01-30T03:59:08.296Z,99605.59
2023-01-30T04:04:16.119Z,99590.84
2023-01-30T04:09:19.539Z,99577.80
2023-01-30T04:14:24.674Z,99564.75
2023-01-30T04:19:46.385Z,99557.71
2023-01-30T04:24:50.197Z,99544.70
2023-01-30T04:29:53.483Z,99532.17
2023-01-30T04:34:57.466Z,99515.54
2023-01-30T04:40:00.729Z,99507.11
2023-01-30T04:45:04.672Z,99493.05
2023-01-30T04:50:09.669Z,99477.80
2023-01-30T04:55:13.534Z,99462.00
2023-01-30T05:00:17.458Z,99459.93
2023-01-30T05:05:27.943Z,99466.27
2023-01-30T05:10:31.394Z,99454.27
2023-01-30T05:15:34.857Z,99440.71
2023-01-30T05:20:38.168Z,99432.14
2023-01-30T05:25:41.355Z,99414.11
2023-01-30T05:30:47.905Z,99399.17
2023-01-30T05:35:51.214Z,99385.94
2023-01-30T05:41:05.239Z,99375.87
2023-01-30T05:46:11.007Z,99387.39
2023-01-30T05:51:23.526Z,99386.88
2023-01-30T05:56:26.769Z,99372.27
2023-01-30T06:01:40.191Z,99362.15
2023-01-30T06:06:43.554Z,99349.83
2023-01-30T06:11:46.778Z,99339.03
2023-01-30T06:16:50.177Z,99318.80
2023-01-30T06:21:53.302Z,99316.39
2023-01-30T06:26:56.445Z,99312.96
2023-01-30T06:31:59.682Z,99312.60
2023-01-30T06:37:03.080Z,99316.39
2023-01-30T06:42:07.326Z,99311.60
2023-01-30T06:47:10.529Z,99299.38
2023-01-30T06:52:13.640Z,99282.55
2023-01-30T06:57:16.960Z,99286.67
2023-01-30T07:02:20.131Z,99279.30
2023-01-30T07:07:23.552Z,99267.65
2023-01-30T07:12:27.390Z,99252.72
2023-01-30T07:17:30.532Z,99248.23
2023-01-30T07:22:33.775Z,99238.60
2023-01-30T07:27:36.944Z,99240.84
2023-01-30T07:32:40.191Z,99233.14
2023-01-30T07:37:46.310Z,99226.83
2023-01-30T07:43:07.169Z,99218.95
2023-01-30T07:48:16.139Z,99209.36
2023-01-30T07:53:19.386Z,99202.02
2023-01-30T07:58:22.635Z,99199.83
2023-01-30T08:03:25.828Z,99196.23
2023-01-30T08:08:29.215Z,99184.94
2023-01-30T08:13:32.617Z,99176.23
2023-01-30T08:18:36.326Z,99169.92
2023-01-30T08:23:39.572Z,99162.55
2023-01-30T08:28:42.996Z,99160.15
2023-01-30T08:33:46.358Z,99159.13
2023-01-30T08:38:49.630Z,99155.55
2023-01-30T08:43:53.089Z,99157.77
2023-01-30T08:48:56.336Z,99154.50
2023-01-30T08:53:59.600Z,99142.15
2023-01-30T08:59:02.962Z,99126.55
2023-01-30T09:04:06.305Z,99113.90
2023-01-30T09:09:09.832Z,99114.60
2023-01-30T09:14:13.691Z,99101.71
2023-01-30T09:19:16.970Z,99098.41
2023-01-30T09:24:21.013Z,99092.69
2023-01-30T09:29:25.471Z,99081.02
2023-01-30T09:34:39.239Z,99076.75
2023-01-30T09:39:42.463Z,99070.23
2023-01-30T09:45:01.574Z,99063.48
2023-01-30T09:50:32.750Z,99057.07
2023-01-30T09:55:42.206Z,99038.46
2023-01-30T10:00:47.338Z,99027.81
2023-01-30T10:05:55.473Z,99024.92
2023-01-30T10:11:23.303Z,99015.83
2023-01-30T10:16:41.343Z,99014.24
2023-01-30T10:21:57.259Z,99001.38
2023-01-30T10:27:02.972Z,98989.34
2023-01-30T10:32:08.359Z,98979.88
2023-01-30T10:37:26.998Z,98972.88
2023-01-30T10:42:43.275Z,98961.41
2023-01-30T10:48:42.453Z,98952.46
2023-01-30T10:53:56.685Z,98937.42
2023-01-30T10:59:26.306Z,98927.06
2023-01-30T11:04:32.414Z,98931.44
2023-01-30T11:09:44.230Z,98922.99
2023-01-30T11:14:53.272Z,98915.60
2023-01-30T11:19:58.217Z,98910.06
2023-01-30T11:25:07.583Z,98908.39
2023-01-30T11:30:15.815Z,98901.23
2023-01-30T11:35:29.724Z,98886.55
2023-01-30T11:40:38.728Z,98873.20
2023-01-30T11:45:48.843Z,98873.40
2023-01-30T11:50:58.177Z,98869.67
2023-01-30T11:56:14.357Z,98861.66
2023-01-30T12:01:17.645Z,98859.42
2023-01-30T12:06:30.211Z,98852.82
2023-01-30T12:11:36.474Z,98852.92
2023-01-30T12:17:15.090Z,98846.27
2023-01-30T12:22:33.913Z,98840.21
2023-01-30T12:28:02.928Z,98834.29
2023-01-30T12:33:11.284Z,98839.36
2023-01-30T12:38:28.039Z,98836.45
2023-01-30T12:43:56.782Z,98834.99
2023-01-30T12:49:11.029Z,98833.95
2023-01-30T12:54:39.489Z,98834.61
2023-01-30T12:59:51.965Z,98832.14
2023-01-30T13:05:32.262Z,98827.83
2023-01-30T13:10:42.927Z,98828.61
2023-01-30T13:16:00.269Z,98820.02
2023-01-30T13:21:37.245Z,98816.16
2023-01-30T13:26:43.959Z,98819.02
2023-01-30T13:31:57.493Z,98815.61
2023-01-30T13:37:27.634Z,98819.06
2023-01-30T13:42:46.462Z,98811.71
2023-01-30T13:48:22.025Z,98814.21
2023-01-30T13:53:35.350Z,98812.39
2023-01-30T13:58:47.774Z,98803.94
2023-01-30T14:04:39.874Z,98804.65
2023-01-30T14:09:49.524Z,98810.80
2023-01-30T14:15:14.099Z,98814.29
2023-01-30T14:20:21.073Z,98813.54
2023-01-30T14:25:30.496Z,98821.90
2023-01-30T14:30:45.544Z,98824.79
2023-01-30T14:35:48.769Z,98836.35
2023-01-30T14:40:58.244Z,98829.66
2023-01-30T14:46:18.261Z,98825.31
2023-01-30T14:51:40.180Z,98827.30
2023-01-30T14:56:56.559Z,98829.05
2023-01-30T15:02:21.805Z,98830.61
2023-01-30T15:07:29.978Z,98831.04
2023-01-30T15:12:58.117Z,98826.08
2023-01-30T15:18:10.426Z,98835.27
2023-01-30T15:23:13.458Z,98835.52
2023-01-30T15:28:39.176Z,98842.98
2023-01-30T15:33:50.897Z,98847.44
2023-01-30T15:39:20.104Z,98850.58
2023-01-30T15:45:01.207Z,98857.42
2023-01-30T15:50:09.191Z,98863.14
2023-01-30T15:55:24.637Z,98861.12
2023-01-30T16:00:37.447Z,98872.05
2023-01-30T16:05:52.563Z,98878.91
2023-01-30T16:10:56.627Z,98881.17
2023-01-30T16:16:03.066Z,98873.40
2023-01-30T16:21:28.971Z,98872.64
2023-01-30T16:26:36.650Z,98866.84
2023-01-30T16:31:41.651Z,98863.70
2023-01-30T16:36:48.117Z,98859.77
2023-01-30T16:41:56.482Z,98855.68
2023-01-30T16:47:24.685Z,98870.60
2023-01-30T16:52:47.178Z,98871.52
2023-01-30T16:57:54.762Z,98875.69
2023-01-30T17:03:01.079Z,98883.20
2023-01-30T17:08:05.883Z,98889.23
2023-01-30T17:13:47.529Z,98881.34
2023-01-30T17:18:58.429Z,98878.55
2023-01-30T17:24:04.677Z,98887.04
2023-01-30T17:29:23.313Z,98890.67
2023-01-30T17:34:28.755Z,98882.32
2023-01-30T17:39:33.365Z,98889.90
2023-01-30T17:44:36.642Z,98899.77
2023-01-30T17:49:40.628Z,98899.90
2023-01-30T17:54:43.998Z,98896.88
2023-01-30T17:59:50.125Z,98909.05
2023-01-30T18:04:53.419Z,98911.41
2023-01-30T18:09:56.682Z,98914.51
2023-01-30T18:15:00.300Z,98914.70
2023-01-30T18:20:25.920Z,98913.82
2023-01-30T18:25:29.150Z,98915.96
2023-01-30T18:30:32.406Z,98914.65
2023-01-30T18:35:38.203Z,98916.59
2023-01-30T18:40:41.691Z,98922.80
2023-01-30T18:45:44.858Z,98931.48
2023-01-30T18:50:48.067Z,98927.39
2023-01-30T18:55:51.259Z,98918.27
2023-01-30T19:00:54.574Z,98908.40
2023-01-30T19:06:01.908Z,98912.80
2023-01-30T19:11:42.483Z,98911.74
2023-01-30T19:16:45.792Z,98916.60
2023-01-30T19:21:50.707Z,98923.07
2023-01-30T19:26:53.958Z,98927.48
2023-01-30T19:31:57.259Z,98924.31
2023-01-30T19:37:01.336Z,98924.61
2023-01-30T19:42:23.062Z,98926.66
2023-01-30T19:47:54.441Z,98928.69
2023-01-30T19:52:57.704Z,98934.64
2023-01-30T19:58:01.827Z,98941.29
2023-01-30T20:03:05.003Z,98935.71
2023-01-30T20:08:09.691Z,98938.02
2023-01-30T20:13:15.955Z,98941.89
2023-01-30T20:18:19.220Z,98941.06
2023-01-30T20:23:23.180Z,98942.23
2023-01-30T20:28:48.463Z,98946.00
2023-01-30T20:33:57.560Z,98946.27
2023-01-30T20:39:04.059Z,98955.16
2023-01-30T20:44:17.199Z,98980.63
2023-01-30T20:49:22.033Z,98991.90
2023-01-30T20:54:25.330Z,99000.04
2023-01-30T20:59:29.387Z,99005.55
2023-01-30T21:04:32.796Z,99004.91
2023-01-30T21:09:36.374Z,99010.11
2023-01-30T21:14:40.131Z,99018.98
2023-01-30T21:19:46.129Z,99036.42
2023-01-30T21:25:00.931Z,99039.52
2023-01-30T21:30:08.263Z,99040.20
2023-01-30T21:35:11.420Z,99044.37
2023-01-30T21:40:33.501Z,99044.45
2023-01-30T21:45:36.688Z,99044.90
2023-01-30T21:50:40.301Z,99036.01
2023-01-30T21:55:43.611Z,99042.89
2023-01-30T22:00:46.844Z,99047.40
2023-01-30T22:05:50.012Z,99054.50
2023-01-30T22:11:07.659Z,99060.87
2023-01-30T22:16:13.778Z,99064.50
2023-01-30T22:21:19.440Z,99062.45
2023-01-30T22:26:24.970Z,99068.39
2023-01-30T22:31:34.575Z,99063.84
2023-01-30T22:36:38.367Z,99075.30
2023-01-30T22:41:41.882Z,99083.20
2023-01-30T22:46:45.073Z,99089.60
2023-01-30T22:51:58.017Z,99098.39
2023-01-30T22:57:01.222Z,99102.30
2023-01-30T23:02:04.498Z,99102.77
2023-01-30T23:07:07.954Z,99108.92
2023-01-30T23:12:29.439Z,99113.72
2023-01-30T23:17:51.516Z,99108.79
2023-01-30T23:22:54.617Z,99107.59
2023-01-30T23:27:57.781Z,99108.89
2023-01-30T23:33:01.145Z,99107.95
2023-01-30T23:38:19.042Z,99109.77
2023-01-30T23:43:22.341Z,99112.52
2023-01-30T23:48:25.614Z,99105.66
2023-01-30T23:53:29.879Z,99108.94
2023-01-30T23:58:35.180Z,99101.16
